sensor_id;sensor_type;location;lat;lon;timestamp;temperature;humidity
22271;DHT22;11304;53.520;10.104;2022-09-09T00:01:38;14.60;99.90
22271;DHT22;11304;53.520;10.104;2022-09-09T00:04:28;14.60;99.90
22271;DHT22;11304;53.520;10.104;2022-09-09T00:07:12;14.60;99.90
22271;DHT22;11304;53.520;10.104;2022-09-09T00:10:13;14.60;99.90
22271;DHT22;11304;53.520;10.104;2022-09-09T00:12:47;14.60;99.90
22271;DHT22;11304;53.520;10.104;2022-09-09T00:15:19;14.60;99.90
22271;DHT22;11304;53.520;10.104;2022-09-09T00:20:35;14.60;99.90
22271;DHT22;11304;53.520;10.104;2022-09-09T00:23:06;14.60;99.90
22271;DHT22;11304;53.520;10.104;2022-09-09T00:28:20;14.70;99.90
22271;DHT22;11304;53.520;10.104;2022-09-09T00:30:48;14.60;99.90
22271;DHT22;11304;53.520;10.104;2022-09-09T00:33:16;14.50;99.90
22271;DHT22;11304;53.520;10.104;2022-09-09T00:35:58;14.50;99.90
22271;DHT22;11304;53.520;10.104;2022-09-09T00:38:36;14.60;99.90
22271;DHT22;11304;53.520;10.104;2022-09-09T00:44:25;14.50;99.90
22271;DHT22;11304;53.520;10.104;2022-09-09T00:58:10;14.40;99.90
22271;DHT22;11304;53.520;10.104;2022-09-09T01:00:47;14.40;99.90
22271;DHT22;11304;53.520;10.104;2022-09-09T01:03:34;14.40;99.90
22271;DHT22;11304;53.520;10.104;2022-09-09T01:11:00;14.20;99.90
22271;DHT22;11304;53.520;10.104;2022-09-09T01:13:33;14.20;99.90
22271;DHT22;11304;53.520;10.104;2022-09-09T01:16:08;14.30;99.90
22271;DHT22;11304;53.520;10.104;2022-09-09T01:18:39;14.30;99.90
22271;DHT22;11304;53.520;10.104;2022-09-09T01:21:22;14.20;99.90
22271;DHT22;11304;53.520;10.104;2022-09-09T01:26:45;14.20;99.90
22271;DHT22;11304;53.520;10.104;2022-09-09T01:29:19;14.20;99.90
22271;DHT22;11304;53.520;10.104;2022-09-09T01:34:56;14.20;99.90
22271;DHT22;11304;53.520;10.104;2022-09-09T01:37:22;14.10;99.90
22271;DHT22;11304;53.520;10.104;2022-09-09T01:39:48;14.20;99.90
22271;DHT22;11304;53.520;10.104;2022-09-09T01:42:15;14.20;99.90
22271;DHT22;11304;53.520;10.104;2022-09-09T01:44:41;14.20;99.90
22271;DHT22;11304;53.520;10.104;2022-09-09T01:47:07;14.20;99.90
22271;DHT22;11304;53.520;10.104;2022-09-09T01:49:33;14.20;99.90
22271;DHT22;11304;53.520;10.104;2022-09-09T01:51:59;14.20;99.90
22271;DHT22;11304;53.520;10.104;2022-09-09T01:54:29;14.20;99.90
22271;DHT22;11304;53.520;10.104;2022-09-09T02:07:46;14.20;99.90
22271;DHT22;11304;53.520;10.104;2022-09-09T02:10:32;14.20;99.90
22271;DHT22;11304;53.520;10.104;2022-09-09T02:13:07;14.20;99.90
22271;DHT22;11304;53.520;10.104;2022-09-09T02:15:52;14.30;99.90
22271;DHT22;11304;53.520;10.104;2022-09-09T02:18:32;14.20;99.90
22271;DHT22;11304;53.520;10.104;2022-09-09T02:21:01;14.10;99.90
22271;DHT22;11304;53.520;10.104;2022-09-09T02:23:28;14.10;99.90
22271;DHT22;11304;53.520;10.104;2022-09-09T02:25:56;14.10;99.90
22271;DHT22;11304;53.520;10.104;2022-09-09T02:28:26;14.10;99.90
22271;DHT22;11304;53.520;10.104;2022-09-09T02:30:53;14.10;99.90
22271;DHT22;11304;53.520;10.104;2022-09-09T02:33:24;14.10;99.90
22271;DHT22;11304;53.520;10.104;2022-09-09T02:35:51;14.10;99.90
22271;DHT22;11304;53.520;10.104;2022-09-09T02:38:17;14.00;99.90
22271;DHT22;11304;53.520;10.104;2022-09-09T02:40:45;13.90;99.90
22271;DHT22;11304;53.520;10.104;2022-09-09T02:43:11;14.00;99.90
22271;DHT22;11304;53.520;10.104;2022-09-09T02:45:42;14.00;99.90
22271;DHT22;11304;53.520;10.104;2022-09-09T02:54:30;13.90;99.90
22271;DHT22;11304;53.520;10.104;2022-09-09T02:57:05;13.90;99.90
22271;DHT22;11304;53.520;10.104;2022-09-09T02:59:33;13.80;99.90
22271;DHT22;11304;53.520;10.104;2022-09-09T03:01:59;13.80;99.90
22271;DHT22;11304;53.520;10.104;2022-09-09T03:04:25;13.80;99.90
22271;DHT22;11304;53.520;10.104;2022-09-09T03:06:51;13.80;99.90
22271;DHT22;11304;53.520;10.104;2022-09-09T03:09:16;13.70;99.90
22271;DHT22;11304;53.520;10.104;2022-09-09T03:11:43;13.80;99.90
22271;DHT22;11304;53.520;10.104;2022-09-09T03:14:09;13.80;99.90
22271;DHT22;11304;53.520;10.104;2022-09-09T03:16:37;13.80;99.90
22271;DHT22;11304;53.520;10.104;2022-09-09T03:19:02;13.70;99.90
22271;DHT22;11304;53.520;10.104;2022-09-09T03:21:28;13.70;99.90
22271;DHT22;11304;53.520;10.104;2022-09-09T03:23:54;13.70;99.90
22271;DHT22;11304;53.520;10.104;2022-09-09T03:26:20;13.70;99.90
22271;DHT22;11304;53.520;10.104;2022-09-09T03:28:46;13.80;99.90
22271;DHT22;11304;53.520;10.104;2022-09-09T03:31:11;13.80;99.90
22271;DHT22;11304;53.520;10.104;2022-09-09T03:33:38;13.80;99.90
22271;DHT22;11304;53.520;10.104;2022-09-09T03:36:05;13.80;99.90
22271;DHT22;11304;53.520;10.104;2022-09-09T03:38:31;13.80;99.90
22271;DHT22;11304;53.520;10.104;2022-09-09T03:40:57;13.80;99.90
22271;DHT22;11304;53.520;10.104;2022-09-09T03:43:24;13.70;99.90
22271;DHT22;11304;53.520;10.104;2022-09-09T03:45:50;13.70;99.90
22271;DHT22;11304;53.520;10.104;2022-09-09T03:48:18;13.70;99.90
22271;DHT22;11304;53.520;10.104;2022-09-09T03:50:47;13.60;99.90
22271;DHT22;11304;53.520;10.104;2022-09-09T03:53:15;13.60;99.90
22271;DHT22;11304;53.520;10.104;2022-09-09T03:55:51;13.70;99.90
22271;DHT22;11304;53.520;10.104;2022-09-09T03:58:21;13.60;99.90
22271;DHT22;11304;53.520;10.104;2022-09-09T04:01:04;13.60;99.90
22271;DHT22;11304;53.520;10.104;2022-09-09T04:03:30;13.60;99.90
22271;DHT22;11304;53.520;10.104;2022-09-09T04:05:59;13.60;99.90
22271;DHT22;11304;53.520;10.104;2022-09-09T04:08:25;13.70;99.90
22271;DHT22;11304;53.520;10.104;2022-09-09T04:10:51;13.60;99.90
22271;DHT22;11304;53.520;10.104;2022-09-09T04:13:18;13.70;99.90
22271;DHT22;11304;53.520;10.104;2022-09-09T04:15:53;13.60;99.90
22271;DHT22;11304;53.520;10.104;2022-09-09T04:18:20;13.60;99.90
22271;DHT22;11304;53.520;10.104;2022-09-09T04:20:49;13.60;99.90
22271;DHT22;11304;53.520;10.104;2022-09-09T04:23:16;13.50;99.90
22271;DHT22;11304;53.520;10.104;2022-09-09T04:25:54;13.60;99.90
22271;DHT22;11304;53.520;10.104;2022-09-09T04:28:22;13.60;99.90
22271;DHT22;11304;53.520;10.104;2022-09-09T04:30:48;13.60;99.90
22271;DHT22;11304;53.520;10.104;2022-09-09T04:33:14;13.60;99.90
22271;DHT22;11304;53.520;10.104;2022-09-09T04:35:45;13.60;99.90
22271;DHT22;11304;53.520;10.104;2022-09-09T04:38:12;13.50;99.90
22271;DHT22;11304;53.520;10.104;2022-09-09T04:40:38;13.50;99.90
22271;DHT22;11304;53.520;10.104;2022-09-09T04:43:08;13.60;99.90
22271;DHT22;11304;53.520;10.104;2022-09-09T04:45:34;13.60;99.90
22271;DHT22;11304;53.520;10.104;2022-09-09T04:48:00;13.70;99.90
22271;DHT22;11304;53.520;10.104;2022-09-09T04:50:26;13.70;99.90
22271;DHT22;11304;53.520;10.104;2022-09-09T04:52:52;13.60;99.90
22271;DHT22;11304;53.520;10.104;2022-09-09T04:55:17;13.60;99.90
22271;DHT22;11304;53.520;10.104;2022-09-09T04:57:43;13.60;99.90
22271;DHT22;11304;53.520;10.104;2022-09-09T05:00:09;13.60;99.90
22271;DHT22;11304;53.520;10.104;2022-09-09T05:02:39;13.50;99.90
22271;DHT22;11304;53.520;10.104;2022-09-09T05:05:05;13.50;99.90
22271;DHT22;11304;53.520;10.104;2022-09-09T05:07:31;13.50;99.90
22271;DHT22;11304;53.520;10.104;2022-09-09T05:09:57;13.40;99.90
22271;DHT22;11304;53.520;10.104;2022-09-09T05:12:23;13.40;99.90
22271;DHT22;11304;53.520;10.104;2022-09-09T05:14:51;13.40;99.90
22271;DHT22;11304;53.520;10.104;2022-09-09T05:17:17;13.30;99.90
22271;DHT22;11304;53.520;10.104;2022-09-09T05:19:43;13.30;99.90
22271;DHT22;11304;53.520;10.104;2022-09-09T05:22:10;13.40;99.90
22271;DHT22;11304;53.520;10.104;2022-09-09T05:24:37;13.40;99.90
22271;DHT22;11304;53.520;10.104;2022-09-09T05:27:04;13.50;99.90
22271;DHT22;11304;53.520;10.104;2022-09-09T05:29:31;13.60;99.90
22271;DHT22;11304;53.520;10.104;2022-09-09T05:31:59;13.60;99.90
22271;DHT22;11304;53.520;10.104;2022-09-09T05:34:25;13.50;99.90
22271;DHT22;11304;53.520;10.104;2022-09-09T05:36:50;13.70;99.90
22271;DHT22;11304;53.520;10.104;2022-09-09T05:39:17;13.80;99.90
22271;DHT22;11304;53.520;10.104;2022-09-09T05:41:43;13.80;99.90
22271;DHT22;11304;53.520;10.104;2022-09-09T05:44:09;13.80;99.90
22271;DHT22;11304;53.520;10.104;2022-09-09T05:46:35;13.80;99.90
22271;DHT22;11304;53.520;10.104;2022-09-09T05:49:02;13.80;99.90
22271;DHT22;11304;53.520;10.104;2022-09-09T05:51:29;13.80;99.90
22271;DHT22;11304;53.520;10.104;2022-09-09T05:53:55;13.80;99.90
22271;DHT22;11304;53.520;10.104;2022-09-09T05:56:25;13.80;99.90
22271;DHT22;11304;53.520;10.104;2022-09-09T05:58:52;13.90;99.90
22271;DHT22;11304;53.520;10.104;2022-09-09T06:01:29;13.90;99.90
22271;DHT22;11304;53.520;10.104;2022-09-09T06:03:56;14.00;99.90
22271;DHT22;11304;53.520;10.104;2022-09-09T06:06:25;14.10;99.90
22271;DHT22;11304;53.520;10.104;2022-09-09T06:08:53;14.20;99.90
22271;DHT22;11304;53.520;10.104;2022-09-09T06:11:23;14.20;99.90
22271;DHT22;11304;53.520;10.104;2022-09-09T06:13:50;14.30;99.90
22271;DHT22;11304;53.520;10.104;2022-09-09T06:16:20;14.30;99.90
22271;DHT22;11304;53.520;10.104;2022-09-09T06:18:48;14.40;99.90
22271;DHT22;11304;53.520;10.104;2022-09-09T06:21:19;14.40;99.90
22271;DHT22;11304;53.520;10.104;2022-09-09T06:23:46;14.50;99.90
22271;DHT22;11304;53.520;10.104;2022-09-09T06:26:13;14.50;99.90
22271;DHT22;11304;53.520;10.104;2022-09-09T06:28:40;14.50;99.90
22271;DHT22;11304;53.520;10.104;2022-09-09T06:31:10;14.50;99.90
22271;DHT22;11304;53.520;10.104;2022-09-09T06:33:41;14.50;99.90
22271;DHT22;11304;53.520;10.104;2022-09-09T06:36:21;14.60;99.90
22271;DHT22;11304;53.520;10.104;2022-09-09T06:38:47;14.60;99.90
22271;DHT22;11304;53.520;10.104;2022-09-09T06:41:15;14.60;99.90
22271;DHT22;11304;53.520;10.104;2022-09-09T06:43:41;14.70;99.90
22271;DHT22;11304;53.520;10.104;2022-09-09T06:46:11;14.80;99.90
22271;DHT22;11304;53.520;10.104;2022-09-09T06:48:39;14.90;99.90
22271;DHT22;11304;53.520;10.104;2022-09-09T06:51:16;14.90;99.90
22271;DHT22;11304;53.520;10.104;2022-09-09T06:53:44;15.00;99.90
22271;DHT22;11304;53.520;10.104;2022-09-09T06:58:39;15.20;99.90
22271;DHT22;11304;53.520;10.104;2022-09-09T07:01:16;15.40;99.90
22271;DHT22;11304;53.520;10.104;2022-09-09T07:03:46;15.60;99.90
22271;DHT22;11304;53.520;10.104;2022-09-09T07:06:19;15.70;99.90
22271;DHT22;11304;53.520;10.104;2022-09-09T07:08:49;15.80;99.90
22271;DHT22;11304;53.520;10.104;2022-09-09T07:11:16;15.80;99.90
22271;DHT22;11304;53.520;10.104;2022-09-09T07:13:42;15.80;99.90
22271;DHT22;11304;53.520;10.104;2022-09-09T07:16:10;15.90;99.90
22271;DHT22;11304;53.520;10.104;2022-09-09T07:18:36;16.00;99.90
22271;DHT22;11304;53.520;10.104;2022-09-09T07:21:03;16.00;99.90
22271;DHT22;11304;53.520;10.104;2022-09-09T07:23:30;16.00;99.90
22271;DHT22;11304;53.520;10.104;2022-09-09T07:25:57;16.10;99.90
22271;DHT22;11304;53.520;10.104;2022-09-09T07:28:23;16.10;99.90
22271;DHT22;11304;53.520;10.104;2022-09-09T07:30:56;16.20;99.90
22271;DHT22;11304;53.520;10.104;2022-09-09T07:33:23;16.30;99.90
22271;DHT22;11304;53.520;10.104;2022-09-09T07:35:49;16.50;99.90
22271;DHT22;11304;53.520;10.104;2022-09-09T07:38:15;16.80;99.90
22271;DHT22;11304;53.520;10.104;2022-09-09T07:40:41;16.90;99.90
22271;DHT22;11304;53.520;10.104;2022-09-09T07:43:07;17.00;99.90
22271;DHT22;11304;53.520;10.104;2022-09-09T07:45:35;17.20;99.90
22271;DHT22;11304;53.520;10.104;2022-09-09T07:48:01;17.40;99.90
22271;DHT22;11304;53.520;10.104;2022-09-09T07:50:27;17.40;99.90
22271;DHT22;11304;53.520;10.104;2022-09-09T11:31:57;21.10;99.90
22271;DHT22;11304;53.520;10.104;2022-09-09T11:37:08;21.10;99.90
22271;DHT22;11304;53.520;10.104;2022-09-09T11:42:23;21.10;99.90
22271;DHT22;11304;53.520;10.104;2022-09-09T11:44:49;20.80;99.90
22271;DHT22;11304;53.520;10.104;2022-09-09T11:47:24;20.70;99.90
22271;DHT22;11304;53.520;10.104;2022-09-09T11:50:31;20.60;99.90
22271;DHT22;11304;53.520;10.104;2022-09-09T11:53:22;20.70;99.90
22271;DHT22;11304;53.520;10.104;2022-09-09T11:55:59;20.80;99.90
22271;DHT22;11304;53.520;10.104;2022-09-09T11:58:27;21.00;99.90
22271;DHT22;11304;53.520;10.104;2022-09-09T12:00:58;21.50;99.90
22271;DHT22;11304;53.520;10.104;2022-09-09T12:03:46;21.90;99.90
22271;DHT22;11304;53.520;10.104;2022-09-09T12:06:27;22.20;99.90
22271;DHT22;11304;53.520;10.104;2022-09-09T12:11:32;23.20;99.90
22271;DHT22;11304;53.520;10.104;2022-09-09T12:13:59;23.10;99.90
22271;DHT22;11304;53.520;10.104;2022-09-09T12:16:36;22.40;99.90
22271;DHT22;11304;53.520;10.104;2022-09-09T12:19:12;22.10;99.90
22271;DHT22;11304;53.520;10.104;2022-09-09T12:21:45;21.70;99.90
22271;DHT22;11304;53.520;10.104;2022-09-09T12:30:15;21.30;99.90
22271;DHT22;11304;53.520;10.104;2022-09-09T12:32:41;21.40;99.90
22271;DHT22;11304;53.520;10.104;2022-09-09T12:37:56;21.20;99.90
22271;DHT22;11304;53.520;10.104;2022-09-09T12:42:51;21.20;99.90
22271;DHT22;11304;53.520;10.104;2022-09-09T12:45:22;21.10;99.90
22271;DHT22;11304;53.520;10.104;2022-09-09T12:47:59;20.90;99.90
22271;DHT22;11304;53.520;10.104;2022-09-09T12:50:32;20.70;99.90
22271;DHT22;11304;53.520;10.104;2022-09-09T12:53:01;20.70;99.90
22271;DHT22;11304;53.520;10.104;2022-09-09T12:55:32;20.60;99.90
22271;DHT22;11304;53.520;10.104;2022-09-09T12:58:04;20.60;99.90
22271;DHT22;11304;53.520;10.104;2022-09-09T13:00:33;20.50;99.90
22271;DHT22;11304;53.520;10.104;2022-09-09T13:03:14;20.30;99.90
22271;DHT22;11304;53.520;10.104;2022-09-09T13:05:41;20.10;99.90
22271;DHT22;11304;53.520;10.104;2022-09-09T13:08:12;20.00;99.90
22271;DHT22;11304;53.520;10.104;2022-09-09T13:10:47;19.90;99.90
22271;DHT22;11304;53.520;10.104;2022-09-09T13:13:19;19.80;99.90
22271;DHT22;11304;53.520;10.104;2022-09-09T13:15:54;19.80;99.90
22271;DHT22;11304;53.520;10.104;2022-09-09T13:18:24;19.70;99.90
22271;DHT22;11304;53.520;10.104;2022-09-09T13:20:53;19.60;99.90
22271;DHT22;11304;53.520;10.104;2022-09-09T13:23:21;19.50;99.90
22271;DHT22;11304;53.520;10.104;2022-09-09T13:28:23;19.40;99.90
22271;DHT22;11304;53.520;10.104;2022-09-09T13:30:56;19.40;99.90
22271;DHT22;11304;53.520;10.104;2022-09-09T13:33:35;19.30;99.90
22271;DHT22;11304;53.520;10.104;2022-09-09T13:36:10;19.30;99.90
22271;DHT22;11304;53.520;10.104;2022-09-09T13:38:56;19.20;99.90
22271;DHT22;11304;53.520;10.104;2022-09-09T13:41:32;19.10;99.90
22271;DHT22;11304;53.520;10.104;2022-09-09T13:43:59;19.00;99.90
22271;DHT22;11304;53.520;10.104;2022-09-09T13:46:41;19.00;99.90
22271;DHT22;11304;53.520;10.104;2022-09-09T13:51:42;18.70;99.90
22271;DHT22;11304;53.520;10.104;2022-09-09T13:54:10;18.60;99.90
22271;DHT22;11304;53.520;10.104;2022-09-09T13:56:37;18.40;99.90
22271;DHT22;11304;53.520;10.104;2022-09-09T13:59:08;18.40;99.90
22271;DHT22;11304;53.520;10.104;2022-09-09T14:01:36;18.30;99.90
22271;DHT22;11304;53.520;10.104;2022-09-09T14:04:03;18.20;99.90
22271;DHT22;11304;53.520;10.104;2022-09-09T14:06:30;18.20;99.90
22271;DHT22;11304;53.520;10.104;2022-09-09T14:08:58;18.20;99.90
22271;DHT22;11304;53.520;10.104;2022-09-09T14:11:25;18.20;99.90
22271;DHT22;11304;53.520;10.104;2022-09-09T14:13:50;18.20;99.90
22271;DHT22;11304;53.520;10.104;2022-09-09T14:16:17;18.20;99.90
22271;DHT22;11304;53.520;10.104;2022-09-09T14:18:44;18.10;99.90
22271;DHT22;11304;53.520;10.104;2022-09-09T14:21:12;18.10;99.90
22271;DHT22;11304;53.520;10.104;2022-09-09T14:23:39;18.00;99.90
22271;DHT22;11304;53.520;10.104;2022-09-09T14:26:06;18.00;99.90
22271;DHT22;11304;53.520;10.104;2022-09-09T14:28:32;17.90;99.90
22271;DHT22;11304;53.520;10.104;2022-09-09T14:31:02;17.80;99.90
22271;DHT22;11304;53.520;10.104;2022-09-09T14:33:29;17.70;99.90
22271;DHT22;11304;53.520;10.104;2022-09-09T14:35:57;17.60;99.90
22271;DHT22;11304;53.520;10.104;2022-09-09T14:38:24;17.60;99.90
22271;DHT22;11304;53.520;10.104;2022-09-09T14:40:50;17.50;99.90
22271;DHT22;11304;53.520;10.104;2022-09-09T14:43:15;17.50;99.90
22271;DHT22;11304;53.520;10.104;2022-09-09T14:45:41;17.40;99.90
22271;DHT22;11304;53.520;10.104;2022-09-09T14:48:08;17.50;99.90
22271;DHT22;11304;53.520;10.104;2022-09-09T14:50:34;17.50;99.90
22271;DHT22;11304;53.520;10.104;2022-09-09T14:53:06;17.50;99.90
22271;DHT22;11304;53.520;10.104;2022-09-09T14:55:34;17.50;99.90
22271;DHT22;11304;53.520;10.104;2022-09-09T14:57:59;17.60;99.90
22271;DHT22;11304;53.520;10.104;2022-09-09T15:00:26;17.60;99.90
22271;DHT22;11304;53.520;10.104;2022-09-09T15:02:53;17.50;99.90
22271;DHT22;11304;53.520;10.104;2022-09-09T15:05:19;17.40;99.90
22271;DHT22;11304;53.520;10.104;2022-09-09T15:07:45;17.20;99.90
22271;DHT22;11304;53.520;10.104;2022-09-09T15:10:11;17.10;99.90
22271;DHT22;11304;53.520;10.104;2022-09-09T15:12:37;17.00;99.90
22271;DHT22;11304;53.520;10.104;2022-09-09T15:15:04;16.90;99.90
22271;DHT22;11304;53.520;10.104;2022-09-09T15:17:30;16.80;99.90
22271;DHT22;11304;53.520;10.104;2022-09-09T15:19:56;16.80;99.90
22271;DHT22;11304;53.520;10.104;2022-09-09T15:22:22;16.70;99.90
22271;DHT22;11304;53.520;10.104;2022-09-09T15:24:49;16.80;99.90
22271;DHT22;11304;53.520;10.104;2022-09-09T15:27:15;16.80;99.90
22271;DHT22;11304;53.520;10.104;2022-09-09T15:29:43;16.80;99.90
22271;DHT22;11304;53.520;10.104;2022-09-09T15:32:09;16.70;99.90
22271;DHT22;11304;53.520;10.104;2022-09-09T15:34:36;16.60;99.90
22271;DHT22;11304;53.520;10.104;2022-09-09T15:37:02;16.60;99.90
22271;DHT22;11304;53.520;10.104;2022-09-09T15:39:28;16.70;99.90
22271;DHT22;11304;53.520;10.104;2022-09-09T15:41:53;16.80;99.90
22271;DHT22;11304;53.520;10.104;2022-09-09T15:44:20;16.90;99.90
22271;DHT22;11304;53.520;10.104;2022-09-09T15:46:51;16.90;99.90
22271;DHT22;11304;53.520;10.104;2022-09-09T15:49:26;17.10;99.90
22271;DHT22;11304;53.520;10.104;2022-09-09T15:51:58;17.20;99.90
22271;DHT22;11304;53.520;10.104;2022-09-09T15:54:31;17.30;99.90
22271;DHT22;11304;53.520;10.104;2022-09-09T15:56:59;17.40;99.90
22271;DHT22;11304;53.520;10.104;2022-09-09T15:59:27;17.70;99.90
22271;DHT22;11304;53.520;10.104;2022-09-09T16:01:54;17.70;99.90
22271;DHT22;11304;53.520;10.104;2022-09-09T16:04:22;17.90;99.90
22271;DHT22;11304;53.520;10.104;2022-09-09T16:06:52;17.90;99.90
22271;DHT22;11304;53.520;10.104;2022-09-09T16:09:18;17.90;99.90
22271;DHT22;11304;53.520;10.104;2022-09-09T16:11:44;18.00;99.90
22271;DHT22;11304;53.520;10.104;2022-09-09T16:14:10;18.10;99.90
22271;DHT22;11304;53.520;10.104;2022-09-09T16:16:36;18.20;99.90
22271;DHT22;11304;53.520;10.104;2022-09-09T16:19:07;18.40;99.90
22271;DHT22;11304;53.520;10.104;2022-09-09T16:21:37;18.40;99.90
22271;DHT22;11304;53.520;10.104;2022-09-09T16:24:04;18.60;99.90
22271;DHT22;11304;53.520;10.104;2022-09-09T16:26:32;18.70;99.90
22271;DHT22;11304;53.520;10.104;2022-09-09T16:28:59;18.80;99.90
22271;DHT22;11304;53.520;10.104;2022-09-09T16:31:26;18.80;99.90
22271;DHT22;11304;53.520;10.104;2022-09-09T16:33:52;18.80;99.90
22271;DHT22;11304;53.520;10.104;2022-09-09T16:36:23;18.80;99.90
22271;DHT22;11304;53.520;10.104;2022-09-09T16:38:55;18.80;99.90
22271;DHT22;11304;53.520;10.104;2022-09-09T16:41:23;18.70;99.90
22271;DHT22;11304;53.520;10.104;2022-09-09T16:43:59;18.70;99.90
22271;DHT22;11304;53.520;10.104;2022-09-09T16:46:26;18.60;99.90
22271;DHT22;11304;53.520;10.104;2022-09-09T16:48:53;18.50;99.90
22271;DHT22;11304;53.520;10.104;2022-09-09T16:51:23;18.50;99.90
22271;DHT22;11304;53.520;10.104;2022-09-09T16:53:50;18.40;99.90
22271;DHT22;11304;53.520;10.104;2022-09-09T16:56:18;18.30;99.90
22271;DHT22;11304;53.520;10.104;2022-09-09T16:58:51;18.30;99.90
22271;DHT22;11304;53.520;10.104;2022-09-09T17:01:17;18.30;99.90
22271;DHT22;11304;53.520;10.104;2022-09-09T17:03:44;18.20;99.90
22271;DHT22;11304;53.520;10.104;2022-09-09T17:06:11;18.20;99.90
22271;DHT22;11304;53.520;10.104;2022-09-09T17:08:38;18.10;99.90
22271;DHT22;11304;53.520;10.104;2022-09-09T17:11:11;18.10;99.90
22271;DHT22;11304;53.520;10.104;2022-09-09T17:13:40;18.00;99.90
22271;DHT22;11304;53.520;10.104;2022-09-09T17:16:06;17.90;99.90
22271;DHT22;11304;53.520;10.104;2022-09-09T17:18:31;17.90;99.90
22271;DHT22;11304;53.520;10.104;2022-09-09T17:21:03;17.80;99.90
22271;DHT22;11304;53.520;10.104;2022-09-09T17:23:29;17.80;99.90
22271;DHT22;11304;53.520;10.104;2022-09-09T17:25:58;17.70;99.90
22271;DHT22;11304;53.520;10.104;2022-09-09T17:28:24;17.60;99.90
22271;DHT22;11304;53.520;10.104;2022-09-09T17:30:53;17.50;99.90
22271;DHT22;11304;53.520;10.104;2022-09-09T17:33:19;17.50;99.90
